sensor_id;sensor_type;location;lat;lon;timestamp;pressure;altitude;pressure_sealevel;temperature;humidity
39449;BME280;25151;45.566;9.382;2022-11-20T00:01:37;99002.34;;;20.09;62.50
39449;BME280;25151;45.566;9.382;2022-11-20T00:04:38;98996.41;;;20.07;62.79
39449;BME280;25151;45.566;9.382;2022-11-20T00:07:39;98992.84;;;20.07;62.75
39449;BME280;25151;45.566;9.382;2022-11-20T00:10:40;98986.47;;;20.06;62.79
39449;BME280;25151;45.566;9.382;2022-11-20T00:13:41;98993.31;;;20.05;62.71
39449;BME280;25151;45.566;9.382;2022-11-20T00:16:42;98986.19;;;20.04;63.07
39449;BME280;25151;45.566;9.382;2022-11-20T00:19:43;98991.78;;;20.04;62.66
39449;BME280;25151;45.566;9.382;2022-11-20T00:22:43;98993.19;;;20.00;62.87
39449;BME280;25151;45.566;9.382;2022-11-20T00:25:44;98999.53;;;20.00;62.66
39449;BME280;25151;45.566;9.382;2022-11-20T00:28:53;98993.94;;;20.00;62.62
39449;BME280;25151;45.566;9.382;2022-11-20T00:31:54;99000.75;;;19.99;62.86
39449;BME280;25151;45.566;9.382;2022-11-20T00:34:55;99011.66;;;19.97;62.89
39449;BME280;25151;45.566;9.382;2022-11-20T00:37:56;99009.63;;;19.98;62.75
39449;BME280;25151;45.566;9.382;2022-11-20T00:40:57;99014.94;;;19.96;62.68
39449;BME280;25151;45.566;9.382;2022-11-20T00:43:58;99030.16;;;19.95;62.63
39449;BME280;25151;45.566;9.382;2022-11-20T00:46:59;99030.16;;;19.95;62.79
39449;BME280;25151;45.566;9.382;2022-11-20T00:50:00;99034.19;;;19.94;62.74
39449;BME280;25151;45.566;9.382;2022-11-20T00:53:00;99036.66;;;19.92;63.01
39449;BME280;25151;45.566;9.382;2022-11-20T00:56:07;99034.19;;;19.94;62.98
39449;BME280;25151;45.566;9.382;2022-11-20T00:59:08;99037.47;;;19.92;62.99
39449;BME280;25151;45.566;9.382;2022-11-20T01:02:09;99040.72;;;19.90;63.04
39449;BME280;25151;45.566;9.382;2022-11-20T01:05:10;99035.59;;;19.89;62.90
39449;BME280;25151;45.566;9.382;2022-11-20T01:08:10;99039.31;;;19.86;62.63
39449;BME280;25151;45.566;9.382;2022-11-20T01:11:17;99035.25;;;19.87;63.02
39449;BME280;25151;45.566;9.382;2022-11-20T01:14:19;99039.31;;;19.86;62.95
39449;BME280;25151;45.566;9.382;2022-11-20T01:17:20;99044.59;;;19.84;62.97
39449;BME280;25151;45.566;9.382;2022-11-20T01:20:20;99050.19;;;19.84;62.95
39449;BME280;25151;45.566;9.382;2022-11-20T01:23:21;99051.41;;;19.83;62.92
39449;BME280;25151;45.566;9.382;2022-11-20T01:26:25;99043.97;;;19.80;63.04
39449;BME280;25151;45.566;9.382;2022-11-20T01:29:26;99047.06;;;19.82;62.77
39449;BME280;25151;45.566;9.382;2022-11-20T01:32:26;99048.31;;;19.81;62.76
39449;BME280;25151;45.566;9.382;2022-11-20T01:35:27;99049.56;;;19.80;63.19
39449;BME280;25151;45.566;9.382;2022-11-20T01:38:28;99052.34;;;19.80;62.80
39449;BME280;25151;45.566;9.382;2022-11-20T01:41:30;99049.22;;;19.78;63.11
39449;BME280;25151;45.566;9.382;2022-11-20T01:44:54;99055.31;;;19.76;63.12
39449;BME280;25151;45.566;9.382;2022-11-20T01:47:55;99052.50;;;19.76;63.10
39449;BME280;25151;45.566;9.382;2022-11-20T01:50:57;99057.28;;;19.76;62.88
39449;BME280;25151;45.566;9.382;2022-11-20T01:54:02;99058.88;;;19.77;63.12
39449;BME280;25151;45.566;9.382;2022-11-20T01:57:06;99067.72;;;19.75;62.96
39449;BME280;25151;45.566;9.382;2022-11-20T02:00:13;99051.88;;;19.72;62.94
39449;BME280;25151;45.566;9.382;2022-11-20T02:03:17;99061.81;;;19.73;62.91
39449;BME280;25151;45.566;9.382;2022-11-20T02:06:23;99063.19;;;19.69;63.09
39449;BME280;25151;45.566;9.382;2022-11-20T02:09:24;99062.25;;;19.72;63.09
39449;BME280;25151;45.566;9.382;2022-11-20T02:12:25;99064.28;;;19.71;63.03
39449;BME280;25151;45.566;9.382;2022-11-20T02:15:45;99058.38;;;19.69;63.10
39449;BME280;25151;45.566;9.382;2022-11-20T02:18:46;99066.44;;;19.67;63.12
39449;BME280;25151;45.566;9.382;2022-11-20T02:21:58;99057.59;;;19.69;62.98
39449;BME280;25151;45.566;9.382;2022-11-20T02:25:02;99066.44;;;19.67;62.97
39449;BME280;25151;45.566;9.382;2022-11-20T02:28:05;99062.22;;;19.62;62.91
39449;BME280;25151;45.566;9.382;2022-11-20T02:31:06;99062.56;;;19.64;63.02
39449;BME280;25151;45.566;9.382;2022-11-20T02:34:06;99056.97;;;19.64;63.11
39449;BME280;25151;45.566;9.382;2022-11-20T02:37:07;99056.63;;;19.62;63.15
39449;BME280;25151;45.566;9.382;2022-11-20T02:40:08;99060.69;;;19.61;63.05
39449;BME280;25151;45.566;9.382;2022-11-20T02:43:09;99059.44;;;19.62;63.09
39449;BME280;25151;45.566;9.382;2022-11-20T02:46:11;99059.09;;;19.60;63.13
39449;BME280;25151;45.566;9.382;2022-11-20T02:49:12;99053.50;;;19.60;63.10
39449;BME280;25151;45.566;9.382;2022-11-20T02:52:12;99054.72;;;19.59;63.01
39449;BME280;25151;45.566;9.382;2022-11-20T02:55:13;99067.06;;;19.62;63.01
39449;BME280;25151;45.566;9.382;2022-11-20T02:58:14;99060.31;;;19.59;63.15
39449;BME280;25151;45.566;9.382;2022-11-20T03:01:15;99052.53;;;19.54;63.16
39449;BME280;25151;45.566;9.382;2022-11-20T03:04:15;99054.88;;;19.56;63.22
39449;BME280;25151;45.566;9.382;2022-11-20T03:07:16;99062.81;;;19.57;63.13
39449;BME280;25151;45.566;9.382;2022-11-20T03:10:17;99061.25;;;19.56;63.06
39449;BME280;25151;45.566;9.382;2022-11-20T03:13:18;99066.84;;;19.56;62.90
39449;BME280;25151;45.566;9.382;2022-11-20T03:16:21;99065.28;;;19.55;63.04
39449;BME280;25151;45.566;9.382;2022-11-20T03:19:22;99060.94;;;19.54;62.94
39449;BME280;25151;45.566;9.382;2022-11-20T03:22:22;99067.78;;;19.53;63.12
39449;BME280;25151;45.566;9.382;2022-11-20T03:25:23;99072.91;;;19.55;62.96
39449;BME280;25151;45.566;9.382;2022-11-20T03:28:24;99069.31;;;19.54;63.04
39449;BME280;25151;45.566;9.382;2022-11-20T03:31:31;99073.38;;;19.53;63.14
39449;BME280;25151;45.566;9.382;2022-11-20T03:34:32;99068.69;;;19.50;63.03
39449;BME280;25151;45.566;9.382;2022-11-20T03:37:32;99074.28;;;19.50;63.08
39449;BME280;25151;45.566;9.382;2022-11-20T03:40:33;99065.59;;;19.48;63.03
39449;BME280;25151;45.566;9.382;2022-11-20T03:43:35;99064.78;;;19.48;62.98
39449;BME280;25151;45.566;9.382;2022-11-20T03:46:36;99065.59;;;19.48;62.84
39449;BME280;25151;45.566;9.382;2022-11-20T03:49:37;99068.38;;;19.48;63.20
39449;BME280;25151;45.566;9.382;2022-11-20T03:52:38;99080.78;;;19.47;63.04
39449;BME280;25151;45.566;9.382;2022-11-20T03:55:39;99079.22;;;19.46;62.72
39449;BME280;25151;45.566;9.382;2022-11-20T03:58:42;99073.63;;;19.46;62.98
39449;BME280;25151;45.566;9.382;2022-11-20T04:01:42;99072.09;;;19.45;63.07
39449;BME280;25151;45.566;9.382;2022-11-20T04:04:43;99078.47;;;19.46;62.98
39449;BME280;25151;45.566;9.382;2022-11-20T04:07:44;99081.72;;;19.44;63.17
39449;BME280;25151;45.566;9.382;2022-11-20T04:10:44;99081.72;;;19.44;63.08
39449;BME280;25151;45.566;9.382;2022-11-20T04:13:47;99083.72;;;19.44;63.23
39449;BME280;25151;45.566;9.382;2022-11-20T04:16:48;99086.22;;;19.41;63.20
39449;BME280;25151;45.566;9.382;2022-11-20T04:19:49;99084.19;;;19.42;63.14
39449;BME280;25151;45.566;9.382;2022-11-20T04:22:53;99081.84;;;19.40;63.27
39449;BME280;25151;45.566;9.382;2022-11-20T04:25:55;99079.84;;;19.41;63.15
39449;BME280;25151;45.566;9.382;2022-11-20T04:29:02;99082.31;;;19.39;63.18
39449;BME280;25151;45.566;9.382;2022-11-20T04:32:03;99087.59;;;19.37;63.17
39449;BME280;25151;45.566;9.382;2022-11-20T04:35:04;99081.06;;;19.40;63.17
39449;BME280;25151;45.566;9.382;2022-11-20T04:38:05;99078.72;;;19.38;62.90
39449;BME280;25151;45.566;9.382;2022-11-20T04:41:09;99077.19;;;19.37;63.31
39449;BME280;25151;45.566;9.382;2022-11-20T04:44:12;99087.59;;;19.37;63.04
39449;BME280;25151;45.566;9.382;2022-11-20T04:47:13;99089.13;;;19.38;63.00
39449;BME280;25151;45.566;9.382;2022-11-20T04:50:14;99098.00;;;19.36;63.04
39449;BME280;25151;45.566;9.382;2022-11-20T04:53:15;99106.81;;;19.35;63.10
39449;BME280;25151;45.566;9.382;2022-11-20T04:56:16;99101.22;;;19.35;63.10
39449;BME280;25151;45.566;9.382;2022-11-20T04:59:16;99096.88;;;19.34;63.17
39449;BME280;25151;45.566;9.382;2022-11-20T05:02:17;99098.91;;;19.33;63.17
39449;BME280;25151;45.566;9.382;2022-11-20T05:05:18;99092.53;;;19.33;63.07
39449;BME280;25151;45.566;9.382;2022-11-20T05:08:19;99097.34;;;19.32;63.28
39449;BME280;25151;45.566;9.382;2022-11-20T05:11:20;99109.31;;;19.33;63.20
39449;BME280;25151;45.566;9.382;2022-11-20T05:14:21;99115.69;;;19.33;63.27
39449;BME280;25151;45.566;9.382;2022-11-20T05:17:22;99113.31;;;19.32;63.12
39449;BME280;25151;45.566;9.382;2022-11-20T05:20:22;99125.31;;;19.32;63.13
39449;BME280;25151;45.566;9.382;2022-11-20T05:23:25;99113.00;;;19.30;63.08
39449;BME280;25151;45.566;9.382;2022-11-20T05:26:26;99125.75;;;19.31;63.11
39449;BME280;25151;45.566;9.382;2022-11-20T05:29:27;99111.13;;;19.27;63.23
39449;BME280;25151;45.566;9.382;2022-11-20T05:32:27;99127.75;;;19.30;63.04
39449;BME280;25151;45.566;9.382;2022-11-20T05:35:28;99121.41;;;19.30;63.14
39449;BME280;25151;45.566;9.382;2022-11-20T05:38:29;99125.88;;;19.27;62.98
39449;BME280;25151;45.566;9.382;2022-11-20T05:41:29;99134.25;;;19.27;62.82
39449;BME280;25151;45.566;9.382;2022-11-20T05:44:30;99133.50;;;19.27;63.24
39449;BME280;25151;45.566;9.382;2022-11-20T05:47:33;99146.22;;;19.28;63.18
39449;BME280;25151;45.566;9.382;2022-11-20T05:50:34;99142.34;;;19.25;63.23
39449;BME280;25151;45.566;9.382;2022-11-20T05:53:35;99148.72;;;19.26;63.17
39449;BME280;25151;45.566;9.382;2022-11-20T05:56:36;99154.28;;;19.26;63.16
39449;BME280;25151;45.566;9.382;2022-11-20T05:59:37;99153.19;;;19.23;63.21
39449;BME280;25151;45.566;9.382;2022-11-20T06:02:38;99151.16;;;19.24;63.16
39449;BME280;25151;45.566;9.382;2022-11-20T06:05:38;99157.53;;;19.24;63.36
39449;BME280;25151;45.566;9.382;2022-11-20T06:08:42;99160.16;;;19.19;63.09
39449;BME280;25151;45.566;9.382;2022-11-20T06:11:43;99160.78;;;19.23;63.38
39449;BME280;25151;45.566;9.382;2022-11-20T06:14:43;99160.78;;;19.23;63.12
39449;BME280;25151;45.566;9.382;2022-11-20T06:17:44;99155.66;;;19.21;63.27
39449;BME280;25151;45.566;9.382;2022-11-20T06:20:45;99165.72;;;19.19;63.24
39449;BME280;25151;45.566;9.382;2022-11-20T06:23:47;99170.09;;;19.20;62.88
39449;BME280;25151;45.566;9.382;2022-11-20T06:26:48;99174.47;;;19.21;63.37
39449;BME280;25151;45.566;9.382;2022-11-20T06:29:48;99173.34;;;19.18;63.48
39449;BME280;25151;45.566;9.382;2022-11-20T06:32:49;99174.13;;;19.19;63.39
39449;BME280;25151;45.566;9.382;2022-11-20T06:35:50;99176.91;;;19.19;63.16
39449;BME280;25151;45.566;9.382;2022-11-20T06:38:51;99176.91;;;19.19;63.20
39449;BME280;25151;45.566;9.382;2022-11-20T06:41:52;99185.28;;;19.19;63.14
39449;BME280;25151;45.566;9.382;2022-11-20T06:44:53;99184.19;;;19.16;63.31
39449;BME280;25151;45.566;9.382;2022-11-20T06:47:53;99191.34;;;19.17;63.21
39449;BME280;25151;45.566;9.382;2022-11-20T06:50:55;99202.41;;;19.21;63.18
39449;BME280;25151;45.566;9.382;2022-11-20T06:53:56;99202.72;;;19.23;63.06
39449;BME280;25151;45.566;9.382;2022-11-20T06:56:59;99203.97;;;19.22;62.99
39449;BME280;25151;45.566;9.382;2022-11-20T07:00:00;99206.75;;;19.22;63.18
39449;BME280;25151;45.566;9.382;2022-11-20T07:03:05;99210.78;;;19.21;63.27
39449;BME280;25151;45.566;9.382;2022-11-20T07:06:07;99215.13;;;19.22;63.02
39449;BME280;25151;45.566;9.382;2022-11-20T07:09:08;99219.19;;;19.21;63.39
39449;BME280;25151;45.566;9.382;2022-11-20T07:12:08;99231.00;;;19.25;63.30
39449;BME280;25151;45.566;9.382;2022-11-20T07:15:09;99238.16;;;19.26;63.25
39449;BME280;25151;45.566;9.382;2022-11-20T07:18:10;99232.56;;;19.26;63.39
39449;BME280;25151;45.566;9.382;2022-11-20T07:21:11;99236.59;;;19.25;63.23
39449;BME280;25151;45.566;9.382;2022-11-20T07:24:12;99241.25;;;19.28;63.37
39449;BME280;25151;45.566;9.382;2022-11-20T07:27:12;99244.53;;;19.26;63.23
39449;BME280;25151;45.566;9.382;2022-11-20T07:30:14;99247.78;;;19.25;63.27
39449;BME280;25151;45.566;9.382;2022-11-20T07:33:15;99245.28;;;19.27;63.46
39449;BME280;25151;45.566;9.382;2022-11-20T07:36:15;99245.28;;;19.27;63.40
39449;BME280;25151;45.566;9.382;2022-11-20T07:39:19;99248.69;;;19.22;63.41
39449;BME280;25151;45.566;9.382;2022-11-20T07:42:21;99258.97;;;19.25;63.42
39449;BME280;25151;45.566;9.382;2022-11-20T07:45:23;99273.25;;;19.27;63.66
39449;BME280;25151;45.566;9.382;2022-11-20T07:48:24;99276.94;;;19.24;63.40
39449;BME280;25151;45.566;9.382;2022-11-20T07:51:25;99281.63;;;19.27;63.53
39449;BME280;25151;45.566;9.382;2022-11-20T07:54:26;99282.53;;;19.24;63.56
39449;BME280;25151;45.566;9.382;2022-11-20T07:57:27;99282.88;;;19.26;63.49
39449;BME280;25151;45.566;9.382;2022-11-20T08:00:27;99288.78;;;19.28;63.51
39449;BME280;25151;45.566;9.382;2022-11-20T08:03:28;99286.63;;;19.32;63.30
39449;BME280;25151;45.566;9.382;2022-11-20T08:06:29;99291.31;;;19.35;63.35
39449;BME280;25151;45.566;9.382;2022-11-20T08:09:30;99286.38;;;19.39;63.31
39449;BME280;25151;45.566;9.382;2022-11-20T08:12:30;99283.16;;;19.40;63.25
39449;BME280;25151;45.566;9.382;2022-11-20T08:16:10;99291.41;;;19.44;63.23
39449;BME280;25151;45.566;9.382;2022-11-20T08:19:12;99292.84;;;19.49;62.89
39449;BME280;25151;45.566;9.382;2022-11-20T08:22:15;99292.56;;;19.56;62.73
39449;BME280;25151;45.566;9.382;2022-11-20T08:25:17;99293.25;;;19.60;62.88
39449;BME280;25151;45.566;9.382;2022-11-20T08:28:18;99303.41;;;19.67;62.58
39449;BME280;25151;45.566;9.382;2022-11-20T08:31:19;99307.63;;;19.71;62.49
39449;BME280;25151;45.566;9.382;2022-11-20T08:34:20;99305.03;;;19.77;62.69
39449;BME280;25151;45.566;9.382;2022-11-20T08:37:21;99300.88;;;19.81;62.26
39449;BME280;25151;45.566;9.382;2022-11-20T08:40:21;99313.81;;;19.88;62.46
39449;BME280;25151;45.566;9.382;2022-11-20T08:43:22;99315.13;;;19.96;62.35
39449;BME280;25151;45.566;9.382;2022-11-20T08:46:27;99316.06;;;20.02;62.20
39449;BME280;25151;45.566;9.382;2022-11-20T08:49:28;99318.28;;;20.07;62.03
39449;BME280;25151;45.566;9.382;2022-11-20T08:52:29;99325.63;;;20.14;62.22
39449;BME280;25151;45.566;9.382;2022-11-20T08:55:32;99324.59;;;20.21;62.26
39449;BME280;25151;45.566;9.382;2022-11-20T08:58:36;99316.19;;;20.21;62.08
39449;BME280;25151;45.566;9.382;2022-11-20T09:01:36;99323.53;;;20.27;61.84
39449;BME280;25151;45.566;9.382;2022-11-20T09:04:37;99321.81;;;20.30;62.22
39449;BME280;25151;45.566;9.382;2022-11-20T09:07:38;99322.16;;;20.32;62.05
39449;BME280;25151;45.566;9.382;2022-11-20T09:10:39;99322.47;;;20.34;61.66
39449;BME280;25151;45.566;9.382;2022-11-20T09:13:42;99334.63;;;20.40;62.01
39449;BME280;25151;45.566;9.382;2022-11-20T09:16:45;99324.34;;;20.37;61.85
39449;BME280;25151;45.566;9.382;2022-11-20T09:19:45;99330.59;;;20.41;61.56
39449;BME280;25151;45.566;9.382;2022-11-20T09:22:46;99326.53;;;20.42;61.69
39449;BME280;25151;45.566;9.382;2022-11-20T09:25:47;99325.63;;;20.45;61.65
39449;BME280;25151;45.566;9.382;2022-11-20T09:28:48;99327.97;;;20.47;61.81
39449;BME280;25151;45.566;9.382;2022-11-20T09:31:48;99327.19;;;20.46;61.92
39449;BME280;25151;45.566;9.382;2022-11-20T09:34:49;99338.28;;;20.50;61.94
39449;BME280;25151;45.566;9.382;2022-11-20T09:37:50;99341.28;;;20.55;61.75
39449;BME280;25151;45.566;9.382;2022-11-20T09:40:58;99341.28;;;20.55;61.70
39449;BME280;25151;45.566;9.382;2022-11-20T09:50:32;99342.81;;;20.56;62.04
39449;BME280;25151;45.566;9.382;2022-11-20T09:54:06;99334.72;;;20.58;61.77
39449;BME280;25151;45.566;9.382;2022-11-20T09:57:19;99326.03;;;20.56;62.11
39449;BME280;25151;45.566;9.382;2022-11-20T10:00:22;99335.19;;;20.57;62.20
39449;BME280;25151;45.566;9.382;2022-11-20T10:03:39;99329.47;;;20.60;62.05
39449;BME280;25151;45.566;9.382;2022-11-20T10:09:56;99317.63;;;20.66;61.79
39449;BME280;25151;45.566;9.382;2022-11-20T10:13:13;99322.63;;;20.71;61.81
39449;BME280;25151;45.566;9.382;2022-11-20T10:26:49;99302.59;;;20.81;61.75
39449;BME280;25151;45.566;9.382;2022-11-20T10:30:15;99310.38;;;20.86;61.76
39449;BME280;25151;45.566;9.382;2022-11-20T10:33:22;99304.78;;;20.86;61.49
39449;BME280;25151;45.566;9.382;2022-11-20T10:36:28;99299.97;;;20.87;61.50
39449;BME280;25151;45.566;9.382;2022-11-20T10:42:50;99299.03;;;20.90;61.74
39449;BME280;25151;45.566;9.382;2022-11-20T10:46:01;99296.53;;;20.92;61.53
39449;BME280;25151;45.566;9.382;2022-11-20T10:49:10;99299.66;;;20.94;61.49
39449;BME280;25151;45.566;9.382;2022-11-20T10:55:46;99297.94;;;20.97;61.32
39449;BME280;25151;45.566;9.382;2022-11-20T10:59:24;99291.25;;;20.94;61.27
39449;BME280;25151;45.566;9.382;2022-11-20T11:02:44;99290.03;;;20.95;61.15
39449;BME280;25151;45.566;9.382;2022-11-20T11:06:28;99292.03;;;20.95;61.25
39449;BME280;25151;45.566;9.382;2022-11-20T11:09:34;99286.88;;;20.93;61.51
39449;BME280;25151;45.566;9.382;2022-11-20T11:12:36;99282.84;;;20.94;61.01
39449;BME280;25151;45.566;9.382;2022-11-20T11:15:39;99294.03;;;20.94;61.50
39449;BME280;25151;45.566;9.382;2022-11-20T11:18:40;99284.56;;;20.92;61.19
39449;BME280;25151;45.566;9.382;2022-11-20T11:21:51;99280.84;;;20.95;61.27
39449;BME280;25151;45.566;9.382;2022-11-20T11:24:53;99283.78;;;20.91;61.08
39449;BME280;25151;45.566;9.382;2022-11-20T11:27:56;99289.25;;;20.95;61.33
39449;BME280;25151;45.566;9.382;2022-11-20T11:30:57;99281.28;;;20.93;61.20
39449;BME280;25151;45.566;9.382;2022-11-20T11:34:12;99284.41;;;20.95;61.18
39449;BME280;25151;45.566;9.382;2022-11-20T11:37:20;99261.66;;;20.93;61.07
39449;BME280;25151;45.566;9.382;2022-11-20T11:40:24;99268.38;;;20.96;61.37
39449;BME280;25151;45.566;9.382;2022-11-20T11:43:32;99268.38;;;20.96;61.19
39449;BME280;25151;45.566;9.382;2022-11-20T11:46:54;99261.22;;;20.95;61.52
39449;BME280;25151;45.566;9.382;2022-11-20T11:50:23;99257.31;;;20.92;61.51
39449;BME280;25151;45.566;9.382;2022-11-20T11:53:26;99261.66;;;20.93;61.25
39449;BME280;25151;45.566;9.382;2022-11-20T11:56:28;99256.06;;;20.93;61.16
39449;BME280;25151;45.566;9.382;2022-11-20T12:00:12;99249.22;;;20.94;61.28
39449;BME280;25151;45.566;9.382;2022-11-20T12:03:12;99253.28;;;21.21;60.98
39449;BME280;25151;45.566;9.382;2022-11-20T12:06:16;99247.38;;;21.28;60.76
39449;BME280;25151;45.566;9.382;2022-11-20T12:09:18;99242.69;;;21.34;60.55
39449;BME280;25151;45.566;9.382;2022-11-20T12:12:25;99235.88;;;21.35;60.54
39449;BME280;25151;45.566;9.382;2022-11-20T12:15:33;99232.75;;;21.42;60.37
39449;BME280;25151;45.566;9.382;2022-11-20T12:18:34;99227.91;;;21.43;60.52
39449;BME280;25151;45.566;9.382;2022-11-20T12:25:26;99228.38;;;21.50;60.45
39449;BME280;25151;45.566;9.382;2022-11-20T12:28:43;99227.41;;;21.53;60.56
39449;BME280;25151;45.566;9.382;2022-11-20T12:32:15;99224.16;;;21.55;60.49
39449;BME280;25151;45.566;9.382;2022-11-20T12:52:37;99204.66;;;21.60;60.21
39449;BME280;25151;45.566;9.382;2022-11-20T12:58:46;99200.94;;;21.54;60.21
39449;BME280;25151;45.566;9.382;2022-11-20T13:06:04;99195.00;;;21.52;60.62
39449;BME280;25151;45.566;9.382;2022-11-20T13:09:11;99191.91;;;21.50;60.46
39449;BME280;25151;45.566;9.382;2022-11-20T13:12:28;99193.47;;;21.51;60.63
39449;BME280;25151;45.566;9.382;2022-11-20T13:19:02;99178.19;;;21.43;60.39
39449;BME280;25151;45.566;9.382;2022-11-20T13:22:03;99189.41;;;21.43;60.13
39449;BME280;25151;45.566;9.382;2022-11-20T13:25:09;99178.81;;;21.38;60.15
39449;BME280;25151;45.566;9.382;2022-11-20T13:31:28;99169.63;;;21.38;60.66
39449;BME280;25151;45.566;9.382;2022-11-20T13:34:30;99166.38;;;21.39;60.44
39449;BME280;25151;45.566;9.382;2022-11-20T13:37:36;99170.41;;;21.38;60.28
39449;BME280;25151;45.566;9.382;2022-11-20T13:40:50;99167.31;;;21.36;60.20
39449;BME280;25151;45.566;9.382;2022-11-20T13:43:52;99151.41;;;21.33;60.52
39449;BME280;25151;45.566;9.382;2022-11-20T13:46:52;99143.78;;;21.33;60.34
39449;BME280;25151;45.566;9.382;2022-11-20T13:49:55;99146.25;;;21.31;60.32
39449;BME280;25151;45.566;9.382;2022-11-20T13:59:58;99151.25;;;21.27;60.54
39449;BME280;25151;45.566;9.382;2022-11-20T14:03:28;99150.94;;;21.25;60.48
39449;BME280;25151;45.566;9.382;2022-11-20T14:06:32;99148.59;;;21.24;60.26
39449;BME280;25151;45.566;9.382;2022-11-20T14:09:34;99140.22;;;21.15;60.50
39449;BME280;25151;45.566;9.382;2022-11-20T14:12:35;99149.25;;;21.09;60.82
39449;BME280;25151;45.566;9.382;2022-11-20T14:15:37;99150.16;;;21.06;60.74
39449;BME280;25151;45.566;9.382;2022-11-20T14:18:40;99141.13;;;21.02;60.89
39449;BME280;25151;45.566;9.382;2022-11-20T14:21:41;99140.84;;;21.00;60.84
39449;BME280;25151;45.566;9.382;2022-11-20T14:24:42;99139.28;;;20.99;60.52
39449;BME280;25151;45.566;9.382;2022-11-20T14:27:45;99136.31;;;20.94;60.66
39449;BME280;25151;45.566;9.382;2022-11-20T14:30:48;99146.75;;;20.93;60.93
39449;BME280;25151;45.566;9.382;2022-11-20T14:33:49;99139.59;;;20.92;60.83
39449;BME280;25151;45.566;9.382;2022-11-20T14:37:04;99137.72;;;20.89;60.90
39449;BME280;25151;45.566;9.382;2022-11-20T14:40:33;99134.31;;;20.85;60.88
39449;BME280;25151;45.566;9.382;2022-11-20T14:43:36;99127.16;;;20.84;60.65
39449;BME280;25151;45.566;9.382;2022-11-20T14:46:38;99126.53;;;20.80;60.85
39449;BME280;25151;45.566;9.382;2022-11-20T14:49:39;99137.75;;;20.80;60.87
39449;BME280;25151;45.566;9.382;2022-11-20T14:52:56;99141.00;;;20.78;61.01
39449;BME280;25151;45.566;9.382;2022-11-20T14:55:59;99148.34;;;20.76;61.13
39449;BME280;25151;45.566;9.382;2022-11-20T14:59:00;99151.59;;;20.74;61.16
39449;BME280;25151;45.566;9.382;2022-11-20T15:02:08;99152.53;;;20.71;61.20
39449;BME280;25151;45.566;9.382;2022-11-20T15:05:09;99156.13;;;20.72;61.13
39449;BME280;25151;45.566;9.382;2022-11-20T15:08:10;99145.69;;;20.63;61.04
39449;BME280;25151;45.566;9.382;2022-11-20T15:11:19;99154.72;;;20.67;61.26
39449;BME280;25151;45.566;9.382;2022-11-20T15:14:21;99165.59;;;20.65;61.25
39449;BME280;25151;45.566;9.382;2022-11-20T15:17:22;99161.69;;;20.62;61.39
39449;BME280;25151;45.566;9.382;2022-11-20T15:20:26;99148.63;;;20.59;61.49
39449;BME280;25151;45.566;9.382;2022-11-20T15:23:29;99141.78;;;20.60;61.25
39449;BME280;25151;45.566;9.382;2022-11-20T15:26:29;99137.09;;;20.57;61.20
39449;BME280;25151;45.566;9.382;2022-11-20T15:29:32;99141.59;;;20.55;61.37
39449;BME280;25151;45.566;9.382;2022-11-20T15:32:32;99149.22;;;20.54;61.30
39449;BME280;25151;45.566;9.382;2022-11-20T15:35:33;99160.44;;;20.54;61.27
39449;BME280;25151;45.566;9.382;2022-11-20T15:38:34;99155.78;;;20.51;61.59
39449;BME280;25151;45.566;9.382;2022-11-20T15:41:36;99161.38;;;20.51;61.35
39449;BME280;25151;45.566;9.382;2022-11-20T15:44:36;99164.63;;;20.50;61.54
39449;BME280;25151;45.566;9.382;2022-11-20T15:47:37;99162.28;;;20.48;61.52
39449;BME280;25151;45.566;9.382;2022-11-20T15:50:52;99158.38;;;20.46;61.33
39449;BME280;25151;45.566;9.382;2022-11-20T15:53:54;99148.91;;;20.43;61.73
39449;BME280;25151;45.566;9.382;2022-11-20T15:56:55;99154.81;;;20.45;61.55
39449;BME280;25151;45.566;9.382;2022-11-20T15:59:55;99157.13;;;20.47;61.45
39449;BME280;25151;45.566;9.382;2022-11-20T16:02:56;99166.00;;;20.45;61.65
39449;BME280;25151;45.566;9.382;2022-11-20T16:05:57;99163.97;;;20.46;61.67
39449;BME280;25151;45.566;9.382;2022-11-20T16:08:58;99168.03;;;20.45;61.85
39449;BME280;25151;45.566;9.382;2022-11-20T16:11:59;99165.22;;;20.45;61.46
39449;BME280;25151;45.566;9.382;2022-11-20T16:14:59;99165.69;;;20.43;61.51
39449;BME280;25151;45.566;9.382;2022-11-20T16:18:20;99174.41;;;20.45;61.79
39449;BME280;25151;45.566;9.382;2022-11-20T16:21:21;99177.22;;;20.45;61.47
39449;BME280;25151;45.566;9.382;2022-11-20T16:24:28;99180.00;;;20.45;61.69
39449;BME280;25151;45.566;9.382;2022-11-20T16:27:28;99177.97;;;20.46;61.67
39449;BME280;25151;45.566;9.382;2022-11-20T16:30:31;99167.25;;;20.44;61.62
39449;BME280;25151;45.566;9.382;2022-11-20T16:33:32;99177.69;;;20.44;62.07
39449;BME280;25151;45.566;9.382;2022-11-20T16:36:33;99174.53;;;20.42;61.61
39449;BME280;25151;45.566;9.382;2022-11-20T16:39:34;99173.78;;;20.41;62.11
39449;BME280;25151;45.566;9.382;2022-11-20T16:42:36;99186.22;;;20.40;61.87
39449;BME280;25151;45.566;9.382;2022-11-20T16:45:42;99192.91;;;20.43;62.22
39449;BME280;25151;45.566;9.382;2022-11-20T16:48:43;99180.94;;;20.42;62.01
39449;BME280;25151;45.566;9.382;2022-11-20T16:51:43;99183.44;;;20.40;61.92
39449;BME280;25151;45.566;9.382;2022-11-20T16:54:44;99191.81;;;20.40;61.72
39449;BME280;25151;45.566;9.382;2022-11-20T16:57:44;99187.44;;;20.39;62.13
39449;BME280;25151;45.566;9.382;2022-11-20T17:00:45;99192.13;;;20.42;61.92
39449;BME280;25151;45.566;9.382;2022-11-20T17:03:53;99195.06;;;20.38;62.17
39449;BME280;25151;45.566;9.382;2022-11-20T17:06:54;99193.03;;;20.39;61.86
39449;BME280;25151;45.566;9.382;2022-11-20T17:09:55;99199.44;;;20.39;62.16
39449;BME280;25151;45.566;9.382;2022-11-20T17:12:56;99199.13;;;20.37;62.37
39449;BME280;25151;45.566;9.382;2022-11-20T17:16:08;99203.47;;;20.38;62.27
39449;BME280;25151;45.566;9.382;2022-11-20T17:19:13;99211.09;;;20.38;62.33
39449;BME280;25151;45.566;9.382;2022-11-20T17:22:14;99214.81;;;20.35;62.33